sensor_id;sensor_type;location;lat;lon;timestamp;P1;durP1;ratioP1;P2;durP2;ratioP2
69419;SDS011;56612;52.030;113.524;2023-02-15T00:00:47;34.35;;;12.20;;
69419;SDS011;56612;52.030;113.524;2023-02-15T00:03:50;33.33;;;10.73;;
69419;SDS011;56612;52.030;113.524;2023-02-15T00:06:53;44.50;;;13.07;;
69419;SDS011;56612;52.030;113.524;2023-02-15T00:09:57;43.92;;;11.43;;
69419;SDS011;56612;52.030;113.524;2023-02-15T00:13:01;32.47;;;11.52;;
69419;SDS011;56612;52.030;113.524;2023-02-15T00:16:06;45.38;;;14.70;;
69419;SDS011;56612;52.030;113.524;2023-02-15T00:19:12;34.13;;;11.57;;
69419;SDS011;56612;52.030;113.524;2023-02-15T00:22:17;67.82;;;14.95;;
69419;SDS011;56612;52.030;113.524;2023-02-15T00:25:21;47.30;;;15.02;;
69419;SDS011;56612;52.030;113.524;2023-02-15T00:28:24;70.70;;;20.23;;
69419;SDS011;56612;52.030;113.524;2023-02-15T00:31:28;64.10;;;20.35;;
69419;SDS011;56612;52.030;113.524;2023-02-15T00:34:33;53.08;;;16.20;;
69419;SDS011;56612;52.030;113.524;2023-02-15T00:37:36;44.70;;;17.00;;
69419;SDS011;56612;52.030;113.524;2023-02-15T00:40:40;66.57;;;23.67;;
69419;SDS011;56612;52.030;113.524;2023-02-15T00:43:44;68.20;;;21.15;;
69419;SDS011;56612;52.030;113.524;2023-02-15T00:46:47;77.25;;;21.67;;
69419;SDS011;56612;52.030;113.524;2023-02-15T00:49:52;37.50;;;12.30;;
69419;SDS011;56612;52.030;113.524;2023-02-15T00:52:55;75.47;;;23.23;;
69419;SDS011;56612;52.030;113.524;2023-02-15T00:56:00;61.78;;;21.92;;
69419;SDS011;56612;52.030;113.524;2023-02-15T00:59:03;55.75;;;18.42;;
69419;SDS011;56612;52.030;113.524;2023-02-15T01:02:07;54.13;;;15.67;;
69419;SDS011;56612;52.030;113.524;2023-02-15T01:05:10;66.75;;;16.63;;
69419;SDS011;56612;52.030;113.524;2023-02-15T01:08:15;50.35;;;17.20;;
69419;SDS011;56612;52.030;113.524;2023-02-15T01:11:20;48.20;;;15.98;;
69419;SDS011;56612;52.030;113.524;2023-02-15T01:14:26;62.47;;;18.20;;
69419;SDS011;56612;52.030;113.524;2023-02-15T01:17:30;52.70;;;16.40;;
69419;SDS011;56612;52.030;113.524;2023-02-15T01:20:38;49.85;;;15.70;;
69419;SDS011;56612;52.030;113.524;2023-02-15T01:23:44;38.23;;;10.77;;
69419;SDS011;56612;52.030;113.524;2023-02-15T01:26:48;39.10;;;12.38;;
69419;SDS011;56612;52.030;113.524;2023-02-15T01:29:52;26.23;;;10.55;;
69419;SDS011;56612;52.030;113.524;2023-02-15T01:32:56;35.17;;;12.35;;
69419;SDS011;56612;52.030;113.524;2023-02-15T01:36:00;40.33;;;13.37;;
69419;SDS011;56612;52.030;113.524;2023-02-15T01:39:06;35.47;;;12.20;;
69419;SDS011;56612;52.030;113.524;2023-02-15T01:42:11;40.60;;;14.23;;
69419;SDS011;56612;52.030;113.524;2023-02-15T01:45:24;47.22;;;14.57;;
69419;SDS011;56612;52.030;113.524;2023-02-15T01:48:30;42.42;;;15.75;;
69419;SDS011;56612;52.030;113.524;2023-02-15T01:51:34;57.83;;;19.03;;
69419;SDS011;56612;52.030;113.524;2023-02-15T01:54:40;69.38;;;21.98;;
69419;SDS011;56612;52.030;113.524;2023-02-15T01:57:45;70.75;;;23.35;;
69419;SDS011;56612;52.030;113.524;2023-02-15T02:00:49;73.93;;;25.42;;
69419;SDS011;56612;52.030;113.524;2023-02-15T02:07:04;72.63;;;23.52;;
69419;SDS011;56612;52.030;113.524;2023-02-15T02:10:10;73.80;;;25.27;;
69419;SDS011;56612;52.030;113.524;2023-02-15T02:13:16;80.72;;;25.00;;
69419;SDS011;56612;52.030;113.524;2023-02-15T02:16:25;85.63;;;28.55;;
69419;SDS011;56612;52.030;113.524;2023-02-15T02:19:54;92.17;;;30.53;;
69419;SDS011;56612;52.030;113.524;2023-02-15T02:27:07;122.20;;;40.22;;
69419;SDS011;56612;52.030;113.524;2023-02-15T02:37:30;111.67;;;34.17;;
69419;SDS011;56612;52.030;113.524;2023-02-15T02:50:49;106.05;;;37.40;;
69419;SDS011;56612;52.030;113.524;2023-02-15T02:53:53;111.27;;;37.57;;
69419;SDS011;56612;52.030;113.524;2023-02-15T02:56:59;89.47;;;30.77;;
69419;SDS011;56612;52.030;113.524;2023-02-15T03:00:05;87.70;;;30.60;;
69419;SDS011;56612;52.030;113.524;2023-02-15T03:09:45;100.53;;;32.23;;
69419;SDS011;56612;52.030;113.524;2023-02-15T03:12:53;84.03;;;30.58;;
69419;SDS011;56612;52.030;113.524;2023-02-15T03:15:56;88.13;;;29.27;;
69419;SDS011;56612;52.030;113.524;2023-02-15T03:19:22;86.55;;;29.08;;
69419;SDS011;56612;52.030;113.524;2023-02-15T03:22:33;101.40;;;31.80;;
69419;SDS011;56612;52.030;113.524;2023-02-15T03:25:45;89.73;;;29.47;;
69419;SDS011;56612;52.030;113.524;2023-02-15T03:28:57;85.88;;;26.77;;
69419;SDS011;56612;52.030;113.524;2023-02-15T03:32:06;78.32;;;27.88;;
69419;SDS011;56612;52.030;113.524;2023-02-15T03:35:13;92.18;;;28.95;;
69419;SDS011;56612;52.030;113.524;2023-02-15T03:38:20;91.93;;;28.77;;
69419;SDS011;56612;52.030;113.524;2023-02-15T03:41:31;93.17;;;32.10;;
69419;SDS011;56612;52.030;113.524;2023-02-15T03:44:47;109.10;;;33.42;;
69419;SDS011;56612;52.030;113.524;2023-02-15T03:48:27;96.38;;;31.60;;
69419;SDS011;56612;52.030;113.524;2023-02-15T03:51:35;91.53;;;31.23;;
69419;SDS011;56612;52.030;113.524;2023-02-15T03:54:42;82.30;;;28.38;;
69419;SDS011;56612;52.030;113.524;2023-02-15T03:57:49;84.57;;;28.80;;
69419;SDS011;56612;52.030;113.524;2023-02-15T04:01:19;89.35;;;29.10;;
69419;SDS011;56612;52.030;113.524;2023-02-15T04:04:45;87.13;;;29.50;;
69419;SDS011;56612;52.030;113.524;2023-02-15T04:07:50;86.82;;;26.90;;
69419;SDS011;56612;52.030;113.524;2023-02-15T04:10:54;79.93;;;26.85;;
69419;SDS011;56612;52.030;113.524;2023-02-15T04:14:00;92.40;;;28.33;;
69419;SDS011;56612;52.030;113.524;2023-02-15T04:17:23;103.88;;;32.95;;
69419;SDS011;56612;52.030;113.524;2023-02-15T04:20:27;87.32;;;27.67;;
69419;SDS011;56612;52.030;113.524;2023-02-15T04:23:48;93.13;;;28.27;;
69419;SDS011;56612;52.030;113.524;2023-02-15T04:27:09;75.40;;;24.58;;
69419;SDS011;56612;52.030;113.524;2023-02-15T04:30:13;83.47;;;26.13;;
69419;SDS011;56612;52.030;113.524;2023-02-15T04:33:18;73.38;;;26.00;;
69419;SDS011;56612;52.030;113.524;2023-02-15T04:36:22;76.63;;;24.95;;
69419;SDS011;56612;52.030;113.524;2023-02-15T04:39:25;81.05;;;23.63;;
69419;SDS011;56612;52.030;113.524;2023-02-15T04:42:28;87.53;;;28.75;;
69419;SDS011;56612;52.030;113.524;2023-02-15T04:45:32;76.83;;;24.30;;
69419;SDS011;56612;52.030;113.524;2023-02-15T04:48:35;86.65;;;25.20;;
69419;SDS011;56612;52.030;113.524;2023-02-15T04:51:38;78.22;;;25.20;;
69419;SDS011;56612;52.030;113.524;2023-02-15T04:54:41;69.20;;;22.45;;
69419;SDS011;56612;52.030;113.524;2023-02-15T04:57:45;88.00;;;25.80;;
69419;SDS011;56612;52.030;113.524;2023-02-15T05:00:49;60.80;;;20.10;;
69419;SDS011;56612;52.030;113.524;2023-02-15T05:03:54;83.82;;;23.20;;
69419;SDS011;56612;52.030;113.524;2023-02-15T05:06:57;58.22;;;20.25;;
69419;SDS011;56612;52.030;113.524;2023-02-15T05:10:01;67.00;;;23.70;;
69419;SDS011;56612;52.030;113.524;2023-02-15T05:13:05;68.88;;;21.67;;
69419;SDS011;56612;52.030;113.524;2023-02-15T05:16:08;66.93;;;20.80;;
69419;SDS011;56612;52.030;113.524;2023-02-15T05:19:12;62.35;;;20.02;;
69419;SDS011;56612;52.030;113.524;2023-02-15T05:22:15;68.32;;;19.73;;
69419;SDS011;56612;52.030;113.524;2023-02-15T05:25:18;62.50;;;19.05;;
69419;SDS011;56612;52.030;113.524;2023-02-15T05:28:40;60.75;;;18.10;;
69419;SDS011;56612;52.030;113.524;2023-02-15T05:31:43;55.03;;;18.83;;
69419;SDS011;56612;52.030;113.524;2023-02-15T05:34:50;44.40;;;15.20;;
69419;SDS011;56612;52.030;113.524;2023-02-15T05:37:54;41.42;;;13.52;;
69419;SDS011;56612;52.030;113.524;2023-02-15T05:40:57;41.97;;;14.10;;
69419;SDS011;56612;52.030;113.524;2023-02-15T05:44:01;51.13;;;16.73;;
69419;SDS011;56612;52.030;113.524;2023-02-15T05:47:05;49.50;;;16.00;;
69419;SDS011;56612;52.030;113.524;2023-02-15T05:50:09;34.03;;;10.63;;
69419;SDS011;56612;52.030;113.524;2023-02-15T05:53:14;26.13;;;8.65;;
69419;SDS011;56612;52.030;113.524;2023-02-15T05:56:17;29.27;;;9.57;;
69419;SDS011;56612;52.030;113.524;2023-02-15T05:59:22;35.60;;;12.52;;
69419;SDS011;56612;52.030;113.524;2023-02-15T06:02:25;28.27;;;8.87;;
69419;SDS011;56612;52.030;113.524;2023-02-15T06:05:28;30.50;;;10.23;;
69419;SDS011;56612;52.030;113.524;2023-02-15T06:08:32;28.65;;;9.85;;
69419;SDS011;56612;52.030;113.524;2023-02-15T06:11:36;29.10;;;10.60;;
69419;SDS011;56612;52.030;113.524;2023-02-15T06:14:39;22.77;;;8.95;;
69419;SDS011;56612;52.030;113.524;2023-02-15T06:17:43;25.00;;;10.00;;
69419;SDS011;56612;52.030;113.524;2023-02-15T06:20:46;32.27;;;10.73;;
69419;SDS011;56612;52.030;113.524;2023-02-15T06:23:51;24.08;;;9.50;;
69419;SDS011;56612;52.030;113.524;2023-02-15T06:26:55;31.98;;;9.75;;
69419;SDS011;56612;52.030;113.524;2023-02-15T06:29:59;16.98;;;7.25;;
69419;SDS011;56612;52.030;113.524;2023-02-15T06:33:02;18.53;;;6.80;;
69419;SDS011;56612;52.030;113.524;2023-02-15T06:36:06;17.00;;;7.17;;
69419;SDS011;56612;52.030;113.524;2023-02-15T06:39:10;15.50;;;6.53;;
69419;SDS011;56612;52.030;113.524;2023-02-15T06:42:14;14.48;;;5.38;;
69419;SDS011;56612;52.030;113.524;2023-02-15T06:45:20;19.42;;;6.20;;
69419;SDS011;56612;52.030;113.524;2023-02-15T06:48:24;21.00;;;6.50;;
69419;SDS011;56612;52.030;113.524;2023-02-15T06:51:28;17.23;;;5.50;;
69419;SDS011;56612;52.030;113.524;2023-02-15T06:54:32;15.90;;;6.13;;
69419;SDS011;56612;52.030;113.524;2023-02-15T06:57:35;29.02;;;6.88;;
69419;SDS011;56612;52.030;113.524;2023-02-15T07:00:38;18.90;;;6.18;;
69419;SDS011;56612;52.030;113.524;2023-02-15T07:03:42;23.87;;;8.07;;
69419;SDS011;56612;52.030;113.524;2023-02-15T07:06:46;30.90;;;8.97;;
69419;SDS011;56612;52.030;113.524;2023-02-15T07:09:49;26.05;;;9.25;;
69419;SDS011;56612;52.030;113.524;2023-02-15T07:12:54;19.25;;;7.65;;
69419;SDS011;56612;52.030;113.524;2023-02-15T07:15:58;23.63;;;7.63;;
69419;SDS011;56612;52.030;113.524;2023-02-15T07:19:02;22.60;;;8.73;;
69419;SDS011;56612;52.030;113.524;2023-02-15T07:22:05;28.97;;;9.53;;
69419;SDS011;56612;52.030;113.524;2023-02-15T07:25:09;20.55;;;7.85;;
69419;SDS011;56612;52.030;113.524;2023-02-15T07:28:13;15.45;;;6.18;;
69419;SDS011;56612;52.030;113.524;2023-02-15T07:31:18;19.13;;;6.45;;
69419;SDS011;56612;52.030;113.524;2023-02-15T07:34:22;20.90;;;7.53;;
69419;SDS011;56612;52.030;113.524;2023-02-15T07:37:25;19.07;;;7.80;;
69419;SDS011;56612;52.030;113.524;2023-02-15T07:40:29;20.75;;;9.50;;
69419;SDS011;56612;52.030;113.524;2023-02-15T07:43:34;20.85;;;8.23;;
69419;SDS011;56612;52.030;113.524;2023-02-15T07:46:39;18.67;;;8.38;;
69419;SDS011;56612;52.030;113.524;2023-02-15T07:49:44;23.37;;;7.87;;
69419;SDS011;56612;52.030;113.524;2023-02-15T07:52:47;21.83;;;7.27;;
69419;SDS011;56612;52.030;113.524;2023-02-15T07:55:51;21.13;;;6.68;;
69419;SDS011;56612;52.030;113.524;2023-02-15T07:58:55;15.52;;;6.45;;
69419;SDS011;56612;52.030;113.524;2023-02-15T08:02:00;14.75;;;6.28;;
69419;SDS011;56612;52.030;113.524;2023-02-15T08:05:04;38.93;;;8.57;;
69419;SDS011;56612;52.030;113.524;2023-02-15T08:08:08;18.77;;;6.97;;
69419;SDS011;56612;52.030;113.524;2023-02-15T08:11:32;16.23;;;6.95;;
69419;SDS011;56612;52.030;113.524;2023-02-15T08:14:42;15.23;;;7.30;;
69419;SDS011;56612;52.030;113.524;2023-02-15T08:17:45;24.25;;;7.80;;
69419;SDS011;56612;52.030;113.524;2023-02-15T08:20:49;16.80;;;8.17;;
69419;SDS011;56612;52.030;113.524;2023-02-15T08:23:54;24.83;;;9.17;;
69419;SDS011;56612;52.030;113.524;2023-02-15T08:27:00;19.33;;;7.80;;
69419;SDS011;56612;52.030;113.524;2023-02-15T08:30:08;23.15;;;8.52;;
69419;SDS011;56612;52.030;113.524;2023-02-15T08:33:11;24.63;;;7.13;;
69419;SDS011;56612;52.030;113.524;2023-02-15T08:36:16;28.90;;;8.57;;
69419;SDS011;56612;52.030;113.524;2023-02-15T08:39:23;34.17;;;10.47;;
69419;SDS011;56612;52.030;113.524;2023-02-15T08:42:27;19.38;;;6.90;;
69419;SDS011;56612;52.030;113.524;2023-02-15T08:45:33;35.75;;;10.02;;
69419;SDS011;56612;52.030;113.524;2023-02-15T08:48:38;23.90;;;9.23;;
69419;SDS011;56612;52.030;113.524;2023-02-15T08:51:41;19.50;;;8.20;;
69419;SDS011;56612;52.030;113.524;2023-02-15T08:54:45;24.50;;;8.07;;
69419;SDS011;56612;52.030;113.524;2023-02-15T08:57:48;25.42;;;8.18;;
69419;SDS011;56612;52.030;113.524;2023-02-15T09:00:52;21.35;;;7.03;;
69419;SDS011;56612;52.030;113.524;2023-02-15T09:03:57;25.73;;;8.30;;
69419;SDS011;56612;52.030;113.524;2023-02-15T09:07:03;24.73;;;9.33;;
69419;SDS011;56612;52.030;113.524;2023-02-15T09:10:07;27.00;;;8.17;;
69419;SDS011;56612;52.030;113.524;2023-02-15T09:13:12;27.25;;;9.45;;
69419;SDS011;56612;52.030;113.524;2023-02-15T09:16:15;31.65;;;9.52;;
69419;SDS011;56612;52.030;113.524;2023-02-15T09:19:22;30.30;;;9.00;;
69419;SDS011;56612;52.030;113.524;2023-02-15T09:22:27;33.87;;;9.73;;
69419;SDS011;56612;52.030;113.524;2023-02-15T09:25:33;33.97;;;11.43;;
69419;SDS011;56612;52.030;113.524;2023-02-15T09:28:37;25.13;;;10.02;;
69419;SDS011;56612;52.030;113.524;2023-02-15T09:31:44;41.67;;;13.57;;
69419;SDS011;56612;52.030;113.524;2023-02-15T09:34:50;43.70;;;13.85;;
69419;SDS011;56612;52.030;113.524;2023-02-15T09:37:53;55.80;;;14.87;;
69419;SDS011;56612;52.030;113.524;2023-02-15T09:41:02;53.83;;;15.70;;
69419;SDS011;56612;52.030;113.524;2023-02-15T09:57:53;38.63;;;11.30;;
69419;SDS011;56612;52.030;113.524;2023-02-15T10:01:04;38.72;;;10.35;;
69419;SDS011;56612;52.030;113.524;2023-02-15T10:07:53;39.15;;;11.98;;
69419;SDS011;56612;52.030;113.524;2023-02-15T10:27:45;66.50;;;20.23;;
69419;SDS011;56612;52.030;113.524;2023-02-15T10:30:51;90.05;;;22.00;;
69419;SDS011;56612;52.030;113.524;2023-02-15T11:03:47;155.65;;;50.90;;
69419;SDS011;56612;52.030;113.524;2023-02-15T11:06:55;146.18;;;45.70;;
69419;SDS011;56612;52.030;113.524;2023-02-15T11:13:44;111.40;;;36.58;;
69419;SDS011;56612;52.030;113.524;2023-02-15T11:16:53;124.93;;;38.97;;
69419;SDS011;56612;52.030;113.524;2023-02-15T11:20:09;100.10;;;31.70;;
69419;SDS011;56612;52.030;113.524;2023-02-15T11:23:21;101.30;;;33.20;;
69419;SDS011;56612;52.030;113.524;2023-02-15T11:26:37;95.03;;;30.02;;
69419;SDS011;56612;52.030;113.524;2023-02-15T11:29:57;95.88;;;29.42;;
69419;SDS011;56612;52.030;113.524;2023-02-15T11:33:12;100.40;;;33.13;;
69419;SDS011;56612;52.030;113.524;2023-02-15T11:36:22;94.97;;;33.10;;
69419;SDS011;56612;52.030;113.524;2023-02-15T11:39:29;105.97;;;34.92;;
69419;SDS011;56612;52.030;113.524;2023-02-15T11:42:35;117.60;;;40.58;;
69419;SDS011;56612;52.030;113.524;2023-02-15T11:45:39;105.78;;;35.22;;
69419;SDS011;56612;52.030;113.524;2023-02-15T11:48:45;104.80;;;36.13;;
69419;SDS011;56612;52.030;113.524;2023-02-15T11:51:50;115.57;;;37.22;;
69419;SDS011;56612;52.030;113.524;2023-02-15T11:54:56;112.47;;;36.75;;
69419;SDS011;56612;52.030;113.524;2023-02-15T11:58:04;124.10;;;37.30;;
69419;SDS011;56612;52.030;113.524;2023-02-15T12:04:32;97.20;;;34.93;;
69419;SDS011;56612;52.030;113.524;2023-02-15T12:11:03;119.35;;;36.80;;
69419;SDS011;56612;52.030;113.524;2023-02-15T12:14:15;145.48;;;40.13;;
69419;SDS011;56612;52.030;113.524;2023-02-15T12:17:23;143.32;;;41.33;;
69419;SDS011;56612;52.030;113.524;2023-02-15T12:20:31;126.53;;;39.13;;
69419;SDS011;56612;52.030;113.524;2023-02-15T12:23:50;112.78;;;36.08;;
69419;SDS011;56612;52.030;113.524;2023-02-15T12:30:20;174.23;;;49.75;;
69419;SDS011;56612;52.030;113.524;2023-02-15T12:33:42;154.98;;;46.13;;
69419;SDS011;56612;52.030;113.524;2023-02-15T12:36:50;142.00;;;45.10;;
69419;SDS011;56612;52.030;113.524;2023-02-15T12:40:10;138.10;;;42.17;;
69419;SDS011;56612;52.030;113.524;2023-02-15T12:43:37;153.20;;;43.28;;
69419;SDS011;56612;52.030;113.524;2023-02-15T12:46:47;230.02;;;70.20;;
69419;SDS011;56612;52.030;113.524;2023-02-15T12:53:35;348.10;;;96.13;;
69419;SDS011;56612;52.030;113.524;2023-02-15T12:56:39;340.85;;;94.68;;
69419;SDS011;56612;52.030;113.524;2023-02-15T12:59:47;313.30;;;89.63;;
69419;SDS011;56612;52.030;113.524;2023-02-15T13:02:53;286.15;;;79.43;;
69419;SDS011;56612;52.030;113.524;2023-02-15T13:05:59;224.00;;;63.70;;
69419;SDS011;56612;52.030;113.524;2023-02-15T13:12:27;331.70;;;93.38;;
69419;SDS011;56612;52.030;113.524;2023-02-15T13:15:38;349.33;;;98.90;;
69419;SDS011;56612;52.030;113.524;2023-02-15T13:18:45;279.33;;;79.65;;
69419;SDS011;56612;52.030;113.524;2023-02-15T13:21:54;248.95;;;67.45;;
69419;SDS011;56612;52.030;113.524;2023-02-15T13:25:01;184.00;;;53.53;;
69419;SDS011;56612;52.030;113.524;2023-02-15T13:28:14;189.23;;;57.35;;
69419;SDS011;56612;52.030;113.524;2023-02-15T13:31:23;186.18;;;52.53;;
69419;SDS011;56612;52.030;113.524;2023-02-15T13:34:34;164.65;;;48.45;;
69419;SDS011;56612;52.030;113.524;2023-02-15T13:41:46;214.47;;;59.57;;
69419;SDS011;56612;52.030;113.524;2023-02-15T13:45:10;210.45;;;55.42;;
69419;SDS011;56612;52.030;113.524;2023-02-15T13:48:44;174.57;;;48.20;;
69419;SDS011;56612;52.030;113.524;2023-02-15T13:52:08;170.70;;;51.55;;
69419;SDS011;56612;52.030;113.524;2023-02-15T13:55:42;138.23;;;38.78;;
69419;SDS011;56612;52.030;113.524;2023-02-15T14:15:29;168.03;;;45.27;;
69419;SDS011;56612;52.030;113.524;2023-02-15T14:18:36;100.95;;;28.25;;
69419;SDS011;56612;52.030;113.524;2023-02-15T14:31:37;251.57;;;73.40;;
69419;SDS011;56612;52.030;113.524;2023-02-15T14:38:04;221.23;;;68.85;;
69419;SDS011;56612;52.030;113.524;2023-02-15T14:45:42;180.67;;;50.53;;
69419;SDS011;56612;52.030;113.524;2023-02-15T14:48:50;208.98;;;54.20;;
69419;SDS011;56612;52.030;113.524;2023-02-15T14:51:57;136.68;;;40.35;;
69419;SDS011;56612;52.030;113.524;2023-02-15T14:55:02;168.88;;;48.63;;
69419;SDS011;56612;52.030;113.524;2023-02-15T14:58:12;177.98;;;48.65;;
69419;SDS011;56612;52.030;113.524;2023-02-15T15:01:16;208.70;;;55.53;;
69419;SDS011;56612;52.030;113.524;2023-02-15T15:04:38;194.80;;;53.13;;
69419;SDS011;56612;52.030;113.524;2023-02-15T15:10:51;229.50;;;64.10;;
69419;SDS011;56612;52.030;113.524;2023-02-15T15:13:58;302.15;;;92.15;;
69419;SDS011;56612;52.030;113.524;2023-02-15T15:17:04;260.53;;;81.20;;
69419;SDS011;56612;52.030;113.524;2023-02-15T15:26:29;372.58;;;103.00;;
69419;SDS011;56612;52.030;113.524;2023-02-15T15:29:40;380.85;;;113.10;;
69419;SDS011;56612;52.030;113.524;2023-02-15T15:39:33;302.40;;;92.70;;
69419;SDS011;56612;52.030;113.524;2023-02-15T15:42:56;349.50;;;105.53;;
69419;SDS011;56612;52.030;113.524;2023-02-15T15:49:40;371.17;;;109.37;;
69419;SDS011;56612;52.030;113.524;2023-02-15T15:52:46;274.45;;;82.97;;
69419;SDS011;56612;52.030;113.524;2023-02-15T15:56:02;273.10;;;79.35;;
69419;SDS011;56612;52.030;113.524;2023-02-15T15:59:12;188.85;;;56.67;;
69419;SDS011;56612;52.030;113.524;2023-02-15T16:02:22;188.20;;;53.33;;
69419;SDS011;56612;52.030;113.524;2023-02-15T16:05:25;126.80;;;37.42;;
69419;SDS011;56612;52.030;113.524;2023-02-15T16:11:35;67.50;;;23.65;;
69419;SDS011;56612;52.030;113.524;2023-02-15T16:14:42;69.03;;;21.67;;
69419;SDS011;56612;52.030;113.524;2023-02-15T16:17:51;72.82;;;23.73;;
69419;SDS011;56612;52.030;113.524;2023-02-15T16:20:58;71.47;;;21.88;;
69419;SDS011;56612;52.030;113.524;2023-02-15T16:27:38;76.77;;;23.73;;
69419;SDS011;56612;52.030;113.524;2023-02-15T16:30:54;75.63;;;23.85;;
69419;SDS011;56612;52.030;113.524;2023-02-15T16:34:09;64.97;;;20.42;;
69419;SDS011;56612;52.030;113.524;2023-02-15T16:37:21;69.32;;;19.67;;
69419;SDS011;56612;52.030;113.524;2023-02-15T16:40:32;60.63;;;18.48;;
69419;SDS011;56612;52.030;113.524;2023-02-15T16:43:54;58.33;;;18.80;;
69419;SDS011;56612;52.030;113.524;2023-02-15T16:47:01;53.97;;;17.80;;
69419;SDS011;56612;52.030;113.524;2023-02-15T16:50:06;54.53;;;15.43;;
69419;SDS011;56612;52.030;113.524;2023-02-15T16:53:20;97.75;;;28.50;;
69419;SDS011;56612;52.030;113.524;2023-02-15T16:56:27;111.20;;;34.47;;
69419;SDS011;56612;52.030;113.524;2023-02-15T16:59:35;162.18;;;46.65;;
69419;SDS011;56612;52.030;113.524;2023-02-15T17:03:06;186.82;;;49.05;;
69419;SDS011;56612;52.030;113.524;2023-02-15T17:06:34;203.55;;;56.75;;
69419;SDS011;56612;52.030;113.524;2023-02-15T17:09:37;266.77;;;75.00;;
69419;SDS011;56612;52.030;113.524;2023-02-15T17:12:53;311.07;;;89.17;;
69419;SDS011;56612;52.030;113.524;2023-02-15T17:19:09;205.05;;;58.53;;
69419;SDS011;56612;52.030;113.524;2023-02-15T17:22:25;172.52;;;52.50;;
69419;SDS011;56612;52.030;113.524;2023-02-15T17:25:37;170.43;;;50.37;;
69419;SDS011;56612;52.030;113.524;2023-02-15T17:28:46;162.65;;;48.92;;
69419;SDS011;56612;52.030;113.524;2023-02-15T17:31:55;106.95;;;31.35;;
69419;SDS011;56612;52.030;113.524;2023-02-15T17:35:21;91.32;;;26.13;;
69419;SDS011;56612;52.030;113.524;2023-02-15T17:38:29;39.00;;;11.65;;
69419;SDS011;56612;52.030;113.524;2023-02-15T17:41:34;25.47;;;7.87;;
69419;SDS011;56612;52.030;113.524;2023-02-15T17:44:40;52.95;;;19.60;;
69419;SDS011;56612;52.030;113.524;2023-02-15T17:47:43;29.08;;;9.27;;
69419;SDS011;56612;52.030;113.524;2023-02-15T17:50:49;24.80;;;7.70;;
69419;SDS011;56612;52.030;113.524;2023-02-15T17:53:53;22.63;;;7.65;;
69419;SDS011;56612;52.030;113.524;2023-02-15T17:57:15;26.00;;;7.80;;
69419;SDS011;56612;52.030;113.524;2023-02-15T18:00:18;24.33;;;7.32;;
69419;SDS011;56612;52.030;113.524;2023-02-15T18:03:46;29.77;;;8.18;;
69419;SDS011;56612;52.030;113.524;2023-02-15T18:07:10;28.60;;;8.30;;
69419;SDS011;56612;52.030;113.524;2023-02-15T18:10:34;24.00;;;8.57;;
69419;SDS011;56612;52.030;113.524;2023-02-15T18:13:56;37.47;;;8.90;;
69419;SDS011;56612;52.030;113.524;2023-02-15T18:17:03;26.83;;;8.68;;
69419;SDS011;56612;52.030;113.524;2023-02-15T18:20:30;25.33;;;8.13;;
69419;SDS011;56612;52.030;113.524;2023-02-15T18:23:34;20.27;;;6.75;;
69419;SDS011;56612;52.030;113.524;2023-02-15T18:26:37;28.58;;;7.35;;
69419;SDS011;56612;52.030;113.524;2023-02-15T18:29:41;21.17;;;6.50;;
69419;SDS011;56612;52.030;113.524;2023-02-15T18:32:45;20.55;;;7.05;;
69419;SDS011;56612;52.030;113.524;2023-02-15T18:35:51;23.85;;;7.07;;
69419;SDS011;56612;52.030;113.524;2023-02-15T18:38:55;16.17;;;5.70;;
69419;SDS011;56612;52.030;113.524;2023-02-15T18:42:00;20.58;;;6.68;;
69419;SDS011;56612;52.030;113.524;2023-02-15T18:45:25;17.25;;;6.05;;
69419;SDS011;56612;52.030;113.524;2023-02-15T18:48:31;24.33;;;6.32;;
69419;SDS011;56612;52.030;113.524;2023-02-15T18:51:34;17.50;;;6.22;;
69419;SDS011;56612;52.030;113.524;2023-02-15T18:54:42;21.63;;;7.07;;
69419;SDS011;56612;52.030;113.524;2023-02-15T18:57:48;24.35;;;6.75;;
69419;SDS011;56612;52.030;113.524;2023-02-15T19:00:54;23.85;;;7.75;;
69419;SDS011;56612;52.030;113.524;2023-02-15T19:04:01;21.23;;;7.68;;
69419;SDS011;56612;52.030;113.524;2023-02-15T19:07:04;27.43;;;8.07;;
69419;SDS011;56612;52.030;113.524;2023-02-15T19:10:15;25.98;;;7.05;;
69419;SDS011;56612;52.030;113.524;2023-02-15T19:13:21;24.98;;;8.13;;
69419;SDS011;56612;52.030;113.524;2023-02-15T19:16:27;32.92;;;7.25;;
69419;SDS011;56612;52.030;113.524;2023-02-15T19:19:32;29.55;;;9.15;;
69419;SDS011;56612;52.030;113.524;2023-02-15T19:22:36;29.90;;;8.70;;
69419;SDS011;56612;52.030;113.524;2023-02-15T19:25:41;28.00;;;8.65;;
69419;SDS011;56612;52.030;113.524;2023-02-15T19:28:44;34.78;;;10.18;;
69419;SDS011;56612;52.030;113.524;2023-02-15T19:31:48;37.20;;;10.75;;
69419;SDS011;56612;52.030;113.524;2023-02-15T19:34:52;35.38;;;9.65;;
69419;SDS011;56612;52.030;113.524;2023-02-15T19:37:56;41.40;;;12.20;;
69419;SDS011;56612;52.030;113.524;2023-02-15T19:41:04;38.22;;;10.88;;
69419;SDS011;56612;52.030;113.524;2023-02-15T19:44:10;45.10;;;13.07;;
69419;SDS011;56612;52.030;113.524;2023-02-15T19:47:14;37.33;;;11.18;;
69419;SDS011;56612;52.030;113.524;2023-02-15T19:50:27;33.70;;;10.38;;
69419;SDS011;56612;52.030;113.524;2023-02-15T19:53:32;38.53;;;10.40;;
69419;SDS011;56612;52.030;113.524;2023-02-15T19:56:37;35.97;;;10.88;;
69419;SDS011;56612;52.030;113.524;2023-02-15T19:59:41;27.90;;;9.52;;
69419;SDS011;56612;52.030;113.524;2023-02-15T20:02:45;34.65;;;10.77;;
69419;SDS011;56612;52.030;113.524;2023-02-15T20:05:49;32.22;;;10.55;;
69419;SDS011;56612;52.030;113.524;2023-02-15T20:08:52;31.43;;;8.90;;
69419;SDS011;56612;52.030;113.524;2023-02-15T20:11:58;26.92;;;8.45;;
69419;SDS011;56612;52.030;113.524;2023-02-15T20:15:04;34.17;;;9.63;;
69419;SDS011;56612;52.030;113.524;2023-02-15T20:18:26;23.35;;;7.00;;
69419;SDS011;56612;52.030;113.524;2023-02-15T20:21:30;26.30;;;8.23;;
69419;SDS011;56612;52.030;113.524;2023-02-15T20:24:34;27.60;;;7.53;;
69419;SDS011;56612;52.030;113.524;2023-02-15T20:27:38;27.55;;;8.43;;
69419;SDS011;56612;52.030;113.524;2023-02-15T20:30:44;21.23;;;7.25;;
69419;SDS011;56612;52.030;113.524;2023-02-15T20:33:48;34.97;;;7.50;;
69419;SDS011;56612;52.030;113.524;2023-02-15T20:36:52;23.37;;;7.33;;
69419;SDS011;56612;52.030;113.524;2023-02-15T20:39:56;28.10;;;7.93;;
69419;SDS011;56612;52.030;113.524;2023-02-15T20:43:00;26.23;;;8.55;;
69419;SDS011;56612;52.030;113.524;2023-02-15T20:46:05;24.00;;;7.70;;
69419;SDS011;56612;52.030;113.524;2023-02-15T20:49:09;28.90;;;8.10;;